sensor_id;sensor_type;location;lat;lon;timestamp;P1;durP1;ratioP1;P2;durP2;ratioP2
65998;SDS011;52766;56.008;37.440;2023-12-04T00:00:48;10.70;;;4.30;;
65998;SDS011;52766;56.008;37.440;2023-12-04T00:03:14;6.18;;;3.10;;
65998;SDS011;52766;56.008;37.440;2023-12-04T00:05:42;6.40;;;3.17;;
65998;SDS011;52766;56.008;37.440;2023-12-04T00:08:09;10.43;;;4.53;;
65998;SDS011;52766;56.008;37.440;2023-12-04T00:10:36;10.15;;;4.10;;
65998;SDS011;52766;56.008;37.440;2023-12-04T00:13:02;8.82;;;4.18;;
65998;SDS011;52766;56.008;37.440;2023-12-04T00:15:28;9.45;;;4.50;;
65998;SDS011;52766;56.008;37.440;2023-12-04T00:17:54;3.35;;;1.70;;
65998;SDS011;52766;56.008;37.440;2023-12-04T00:20:20;5.75;;;2.92;;
65998;SDS011;52766;56.008;37.440;2023-12-04T00:22:46;8.85;;;4.60;;
65998;SDS011;52766;56.008;37.440;2023-12-04T00:25:12;9.05;;;4.82;;
65998;SDS011;52766;56.008;37.440;2023-12-04T00:27:37;8.40;;;3.95;;
65998;SDS011;52766;56.008;37.440;2023-12-04T00:30:06;8.88;;;3.88;;
65998;SDS011;52766;56.008;37.440;2023-12-04T00:32:32;10.18;;;5.28;;
65998;SDS011;52766;56.008;37.440;2023-12-04T00:34:58;9.38;;;3.97;;
65998;SDS011;52766;56.008;37.440;2023-12-04T00:37:25;11.48;;;4.22;;
65998;SDS011;52766;56.008;37.440;2023-12-04T00:39:52;9.70;;;5.15;;
65998;SDS011;52766;56.008;37.440;2023-12-04T00:42:18;8.77;;;3.70;;
65998;SDS011;52766;56.008;37.440;2023-12-04T00:44:43;7.35;;;3.33;;
65998;SDS011;52766;56.008;37.440;2023-12-04T00:47:09;8.75;;;3.40;;
65998;SDS011;52766;56.008;37.440;2023-12-04T00:49:36;7.78;;;2.97;;
65998;SDS011;52766;56.008;37.440;2023-12-04T00:52:02;8.88;;;2.75;;
65998;SDS011;52766;56.008;37.440;2023-12-04T00:54:28;8.55;;;3.13;;
65998;SDS011;52766;56.008;37.440;2023-12-04T00:56:54;11.45;;;5.10;;
65998;SDS011;52766;56.008;37.440;2023-12-04T00:59:19;6.95;;;3.33;;
65998;SDS011;52766;56.008;37.440;2023-12-04T01:01:45;9.15;;;4.05;;
65998;SDS011;52766;56.008;37.440;2023-12-04T01:04:11;5.90;;;2.78;;
65998;SDS011;52766;56.008;37.440;2023-12-04T01:06:37;5.75;;;2.78;;
65998;SDS011;52766;56.008;37.440;2023-12-04T01:09:03;8.70;;;3.67;;
65998;SDS011;52766;56.008;37.440;2023-12-04T01:11:28;11.77;;;5.07;;
65998;SDS011;52766;56.008;37.440;2023-12-04T01:13:54;8.60;;;4.55;;
65998;SDS011;52766;56.008;37.440;2023-12-04T01:16:20;12.32;;;5.72;;
65998;SDS011;52766;56.008;37.440;2023-12-04T01:18:46;8.32;;;3.78;;
65998;SDS011;52766;56.008;37.440;2023-12-04T01:21:12;7.85;;;3.40;;
65998;SDS011;52766;56.008;37.440;2023-12-04T01:23:37;7.05;;;3.08;;
65998;SDS011;52766;56.008;37.440;2023-12-04T01:26:06;5.15;;;3.05;;
65998;SDS011;52766;56.008;37.440;2023-12-04T01:28:32;12.32;;;5.20;;
65998;SDS011;52766;56.008;37.440;2023-12-04T01:30:58;5.90;;;2.72;;
65998;SDS011;52766;56.008;37.440;2023-12-04T01:33:25;8.68;;;4.22;;
65998;SDS011;52766;56.008;37.440;2023-12-04T01:35:51;14.45;;;3.95;;
65998;SDS011;52766;56.008;37.440;2023-12-04T01:38:17;6.85;;;2.97;;
65998;SDS011;52766;56.008;37.440;2023-12-04T01:40:44;6.38;;;3.13;;
65998;SDS011;52766;56.008;37.440;2023-12-04T01:43:10;8.23;;;3.22;;
65998;SDS011;52766;56.008;37.440;2023-12-04T01:45:36;8.27;;;3.90;;
65998;SDS011;52766;56.008;37.440;2023-12-04T01:48:03;6.28;;;2.97;;
65998;SDS011;52766;56.008;37.440;2023-12-04T01:50:29;4.78;;;2.70;;
65998;SDS011;52766;56.008;37.440;2023-12-04T01:52:56;8.80;;;3.33;;
65998;SDS011;52766;56.008;37.440;2023-12-04T01:55:21;7.20;;;3.03;;
65998;SDS011;52766;56.008;37.440;2023-12-04T01:57:47;7.28;;;3.35;;
65998;SDS011;52766;56.008;37.440;2023-12-04T02:00:13;8.35;;;3.67;;
65998;SDS011;52766;56.008;37.440;2023-12-04T02:02:40;10.57;;;5.32;;
65998;SDS011;52766;56.008;37.440;2023-12-04T02:05:08;10.52;;;5.70;;
65998;SDS011;52766;56.008;37.440;2023-12-04T02:07:34;11.50;;;5.00;;
65998;SDS011;52766;56.008;37.440;2023-12-04T02:10:02;10.80;;;4.88;;
65998;SDS011;52766;56.008;37.440;2023-12-04T02:12:31;14.25;;;6.88;;
65998;SDS011;52766;56.008;37.440;2023-12-04T02:14:57;10.85;;;5.30;;
65998;SDS011;52766;56.008;37.440;2023-12-04T02:17:24;10.98;;;5.15;;
65998;SDS011;52766;56.008;37.440;2023-12-04T02:19:52;11.05;;;4.68;;
65998;SDS011;52766;56.008;37.440;2023-12-04T02:22:18;12.32;;;4.82;;
65998;SDS011;52766;56.008;37.440;2023-12-04T02:24:45;9.27;;;4.15;;
65998;SDS011;52766;56.008;37.440;2023-12-04T02:27:16;8.30;;;4.45;;
65998;SDS011;52766;56.008;37.440;2023-12-04T02:29:46;12.15;;;4.78;;
65998;SDS011;52766;56.008;37.440;2023-12-04T02:32:15;7.35;;;3.75;;
65998;SDS011;52766;56.008;37.440;2023-12-04T02:34:41;8.57;;;4.38;;
65998;SDS011;52766;56.008;37.440;2023-12-04T02:37:08;7.63;;;4.35;;
65998;SDS011;52766;56.008;37.440;2023-12-04T02:39:36;9.98;;;4.80;;
65998;SDS011;52766;56.008;37.440;2023-12-04T02:42:02;10.85;;;3.53;;
65998;SDS011;52766;56.008;37.440;2023-12-04T02:44:28;15.38;;;5.70;;
65998;SDS011;52766;56.008;37.440;2023-12-04T02:46:54;10.90;;;4.43;;
65998;SDS011;52766;56.008;37.440;2023-12-04T02:49:20;10.18;;;4.60;;
65998;SDS011;52766;56.008;37.440;2023-12-04T02:51:46;14.45;;;6.75;;
65998;SDS011;52766;56.008;37.440;2023-12-04T02:54:12;9.88;;;5.28;;
65998;SDS011;52766;56.008;37.440;2023-12-04T02:56:37;12.85;;;5.45;;
65998;SDS011;52766;56.008;37.440;2023-12-04T02:59:05;15.30;;;7.45;;
65998;SDS011;52766;56.008;37.440;2023-12-04T03:01:30;19.02;;;7.85;;
65998;SDS011;52766;56.008;37.440;2023-12-04T03:03:56;10.55;;;5.93;;
65998;SDS011;52766;56.008;37.440;2023-12-04T03:06:25;12.93;;;5.15;;
65998;SDS011;52766;56.008;37.440;2023-12-04T03:08:51;9.50;;;4.65;;
65998;SDS011;52766;56.008;37.440;2023-12-04T03:11:18;11.77;;;4.82;;
65998;SDS011;52766;56.008;37.440;2023-12-04T03:13:43;8.52;;;4.30;;
65998;SDS011;52766;56.008;37.440;2023-12-04T03:16:15;12.00;;;5.78;;
65998;SDS011;52766;56.008;37.440;2023-12-04T03:18:42;15.65;;;7.25;;
65998;SDS011;52766;56.008;37.440;2023-12-04T03:21:08;10.55;;;5.80;;
65998;SDS011;52766;56.008;37.440;2023-12-04T03:23:34;9.13;;;4.32;;
65998;SDS011;52766;56.008;37.440;2023-12-04T03:26:00;12.75;;;5.60;;
65998;SDS011;52766;56.008;37.440;2023-12-04T03:28:26;11.07;;;5.38;;
65998;SDS011;52766;56.008;37.440;2023-12-04T03:30:52;13.20;;;5.68;;
65998;SDS011;52766;56.008;37.440;2023-12-04T03:33:18;18.25;;;5.47;;
65998;SDS011;52766;56.008;37.440;2023-12-04T03:35:43;6.10;;;2.80;;
65998;SDS011;52766;56.008;37.440;2023-12-04T03:38:09;11.15;;;5.95;;
65998;SDS011;52766;56.008;37.440;2023-12-04T03:40:36;10.63;;;5.25;;
65998;SDS011;52766;56.008;37.440;2023-12-04T03:43:02;8.45;;;4.65;;
65998;SDS011;52766;56.008;37.440;2023-12-04T03:45:29;7.25;;;3.20;;
65998;SDS011;52766;56.008;37.440;2023-12-04T03:47:55;11.05;;;4.97;;
65998;SDS011;52766;56.008;37.440;2023-12-04T03:50:21;9.52;;;4.20;;
65998;SDS011;52766;56.008;37.440;2023-12-04T03:52:47;8.48;;;3.97;;
65998;SDS011;52766;56.008;37.440;2023-12-04T03:55:13;9.48;;;4.72;;
65998;SDS011;52766;56.008;37.440;2023-12-04T03:57:39;11.85;;;4.88;;
65998;SDS011;52766;56.008;37.440;2023-12-04T04:00:06;6.55;;;3.53;;
65998;SDS011;52766;56.008;37.440;2023-12-04T04:02:39;6.25;;;2.35;;
65998;SDS011;52766;56.008;37.440;2023-12-04T04:05:05;15.85;;;6.22;;
65998;SDS011;52766;56.008;37.440;2023-12-04T04:07:31;10.75;;;5.15;;
65998;SDS011;52766;56.008;37.440;2023-12-04T04:09:57;11.85;;;5.70;;
65998;SDS011;52766;56.008;37.440;2023-12-04T04:12:23;10.70;;;4.70;;
65998;SDS011;52766;56.008;37.440;2023-12-04T04:14:49;8.80;;;4.18;;
65998;SDS011;52766;56.008;37.440;2023-12-04T04:17:15;8.88;;;4.60;;
65998;SDS011;52766;56.008;37.440;2023-12-04T04:19:41;9.93;;;4.30;;
65998;SDS011;52766;56.008;37.440;2023-12-04T04:22:09;9.50;;;4.85;;
65998;SDS011;52766;56.008;37.440;2023-12-04T04:24:34;16.63;;;7.28;;
65998;SDS011;52766;56.008;37.440;2023-12-04T04:27:01;14.65;;;6.82;;
65998;SDS011;52766;56.008;37.440;2023-12-04T04:29:28;9.85;;;5.05;;
65998;SDS011;52766;56.008;37.440;2023-12-04T04:31:55;12.70;;;5.18;;
65998;SDS011;52766;56.008;37.440;2023-12-04T04:34:23;13.02;;;6.35;;
65998;SDS011;52766;56.008;37.440;2023-12-04T04:36:49;8.82;;;4.13;;
65998;SDS011;52766;56.008;37.440;2023-12-04T04:39:16;10.00;;;4.20;;
65998;SDS011;52766;56.008;37.440;2023-12-04T04:41:41;11.00;;;4.10;;
65998;SDS011;52766;56.008;37.440;2023-12-04T04:44:07;9.50;;;4.50;;
65998;SDS011;52766;56.008;37.440;2023-12-04T04:46:34;8.13;;;4.15;;
65998;SDS011;52766;56.008;37.440;2023-12-04T04:49:01;12.70;;;6.95;;
65998;SDS011;52766;56.008;37.440;2023-12-04T04:51:28;9.35;;;4.43;;
65998;SDS011;52766;56.008;37.440;2023-12-04T04:53:57;9.43;;;4.13;;
65998;SDS011;52766;56.008;37.440;2023-12-04T04:56:25;15.85;;;6.63;;
65998;SDS011;52766;56.008;37.440;2023-12-04T04:58:51;13.68;;;7.53;;
65998;SDS011;52766;56.008;37.440;2023-12-04T05:01:17;17.83;;;7.82;;
65998;SDS011;52766;56.008;37.440;2023-12-04T05:03:47;11.30;;;5.68;;
65998;SDS011;52766;56.008;37.440;2023-12-04T05:06:13;12.52;;;5.65;;
65998;SDS011;52766;56.008;37.440;2023-12-04T05:08:39;17.60;;;8.23;;
65998;SDS011;52766;56.008;37.440;2023-12-04T05:11:05;14.10;;;5.03;;
65998;SDS011;52766;56.008;37.440;2023-12-04T05:13:31;11.57;;;5.70;;
65998;SDS011;52766;56.008;37.440;2023-12-04T05:15:59;13.20;;;6.90;;
65998;SDS011;52766;56.008;37.440;2023-12-04T05:18:26;15.82;;;6.57;;
65998;SDS011;52766;56.008;37.440;2023-12-04T05:20:51;18.55;;;9.07;;
65998;SDS011;52766;56.008;37.440;2023-12-04T05:23:17;15.00;;;7.03;;
65998;SDS011;52766;56.008;37.440;2023-12-04T05:25:43;15.90;;;7.90;;
65998;SDS011;52766;56.008;37.440;2023-12-04T05:28:09;17.40;;;7.40;;
65998;SDS011;52766;56.008;37.440;2023-12-04T05:30:36;8.93;;;4.38;;
65998;SDS011;52766;56.008;37.440;2023-12-04T05:33:05;17.23;;;7.50;;
65998;SDS011;52766;56.008;37.440;2023-12-04T05:35:32;14.32;;;4.95;;
65998;SDS011;52766;56.008;37.440;2023-12-04T05:38:00;12.00;;;4.40;;
65998;SDS011;52766;56.008;37.440;2023-12-04T05:40:26;14.90;;;6.40;;
65998;SDS011;52766;56.008;37.440;2023-12-04T05:42:53;19.23;;;7.40;;
65998;SDS011;52766;56.008;37.440;2023-12-04T05:45:21;14.90;;;6.75;;
65998;SDS011;52766;56.008;37.440;2023-12-04T05:47:47;13.65;;;6.72;;
65998;SDS011;52766;56.008;37.440;2023-12-04T05:50:14;12.75;;;5.68;;
65998;SDS011;52766;56.008;37.440;2023-12-04T05:52:39;14.25;;;5.75;;
65998;SDS011;52766;56.008;37.440;2023-12-04T05:55:07;18.30;;;7.97;;
65998;SDS011;52766;56.008;37.440;2023-12-04T05:57:34;14.27;;;7.40;;
65998;SDS011;52766;56.008;37.440;2023-12-04T06:00:00;14.88;;;4.47;;
65998;SDS011;52766;56.008;37.440;2023-12-04T06:02:33;14.45;;;6.20;;
65998;SDS011;52766;56.008;37.440;2023-12-04T06:05:17;18.17;;;7.15;;
65998;SDS011;52766;56.008;37.440;2023-12-04T06:10:47;13.50;;;6.72;;
65998;SDS011;52766;56.008;37.440;2023-12-04T06:13:15;11.63;;;5.43;;
65998;SDS011;52766;56.008;37.440;2023-12-04T06:15:45;13.07;;;5.95;;
65998;SDS011;52766;56.008;37.440;2023-12-04T06:18:12;9.80;;;5.00;;
65998;SDS011;52766;56.008;37.440;2023-12-04T06:20:40;11.93;;;5.10;;
65998;SDS011;52766;56.008;37.440;2023-12-04T06:23:13;13.93;;;6.72;;
65998;SDS011;52766;56.008;37.440;2023-12-04T06:25:40;16.52;;;7.55;;
65998;SDS011;52766;56.008;37.440;2023-12-04T06:28:15;12.65;;;6.13;;
65998;SDS011;52766;56.008;37.440;2023-12-04T06:30:45;10.18;;;6.05;;
65998;SDS011;52766;56.008;37.440;2023-12-04T06:33:13;12.52;;;6.90;;
65998;SDS011;52766;56.008;37.440;2023-12-04T06:35:48;12.63;;;6.53;;
65998;SDS011;52766;56.008;37.440;2023-12-04T06:38:17;14.27;;;6.88;;
65998;SDS011;52766;56.008;37.440;2023-12-04T06:40:49;15.27;;;6.53;;
65998;SDS011;52766;56.008;37.440;2023-12-04T06:43:17;15.73;;;6.75;;
65998;SDS011;52766;56.008;37.440;2023-12-04T06:46:00;16.90;;;6.72;;
65998;SDS011;52766;56.008;37.440;2023-12-04T06:48:57;14.48;;;6.03;;
65998;SDS011;52766;56.008;37.440;2023-12-04T06:51:25;13.27;;;6.63;;
65998;SDS011;52766;56.008;37.440;2023-12-04T06:53:51;12.40;;;5.45;;
65998;SDS011;52766;56.008;37.440;2023-12-04T06:56:17;15.13;;;8.00;;
65998;SDS011;52766;56.008;37.440;2023-12-04T06:58:43;17.98;;;9.30;;
65998;SDS011;52766;56.008;37.440;2023-12-04T07:01:15;11.50;;;5.80;;
65998;SDS011;52766;56.008;37.440;2023-12-04T07:03:43;16.55;;;6.68;;
65998;SDS011;52766;56.008;37.440;2023-12-04T07:06:16;11.50;;;4.68;;
65998;SDS011;52766;56.008;37.440;2023-12-04T07:08:49;15.93;;;6.85;;
65998;SDS011;52766;56.008;37.440;2023-12-04T07:14:12;9.55;;;5.93;;
65998;SDS011;52766;56.008;37.440;2023-12-04T07:16:43;21.45;;;9.18;;
65998;SDS011;52766;56.008;37.440;2023-12-04T07:19:14;14.82;;;7.38;;
65998;SDS011;52766;56.008;37.440;2023-12-04T07:24:38;19.85;;;9.73;;
65998;SDS011;52766;56.008;37.440;2023-12-04T07:27:06;19.48;;;9.27;;
65998;SDS011;52766;56.008;37.440;2023-12-04T07:30:01;14.05;;;6.28;;
65998;SDS011;52766;56.008;37.440;2023-12-04T07:32:32;17.25;;;7.38;;
65998;SDS011;52766;56.008;37.440;2023-12-04T07:35:07;18.83;;;8.65;;
65998;SDS011;52766;56.008;37.440;2023-12-04T07:37:41;11.73;;;4.80;;
65998;SDS011;52766;56.008;37.440;2023-12-04T07:40:14;13.82;;;6.70;;
65998;SDS011;52766;56.008;37.440;2023-12-04T07:42:54;16.48;;;7.25;;
65998;SDS011;52766;56.008;37.440;2023-12-04T07:45:31;12.02;;;5.35;;
65998;SDS011;52766;56.008;37.440;2023-12-04T07:48:03;15.18;;;7.55;;
65998;SDS011;52766;56.008;37.440;2023-12-04T07:50:42;17.88;;;7.40;;
65998;SDS011;52766;56.008;37.440;2023-12-04T07:53:16;13.90;;;7.10;;
65998;SDS011;52766;56.008;37.440;2023-12-04T07:55:46;16.70;;;7.05;;
65998;SDS011;52766;56.008;37.440;2023-12-04T07:58:41;10.77;;;5.30;;
65998;SDS011;52766;56.008;37.440;2023-12-04T08:01:23;16.30;;;8.27;;
65998;SDS011;52766;56.008;37.440;2023-12-04T08:03:53;17.45;;;8.85;;
65998;SDS011;52766;56.008;37.440;2023-12-04T08:06:22;17.55;;;8.35;;
65998;SDS011;52766;56.008;37.440;2023-12-04T08:08:54;17.52;;;7.90;;
65998;SDS011;52766;56.008;37.440;2023-12-04T08:11:28;15.02;;;7.22;;
65998;SDS011;52766;56.008;37.440;2023-12-04T08:14:04;17.00;;;7.40;;
65998;SDS011;52766;56.008;37.440;2023-12-04T08:19:36;18.67;;;9.27;;
65998;SDS011;52766;56.008;37.440;2023-12-04T08:22:17;14.63;;;6.88;;
65998;SDS011;52766;56.008;37.440;2023-12-04T08:24:44;14.82;;;6.18;;
65998;SDS011;52766;56.008;37.440;2023-12-04T08:27:11;18.67;;;7.80;;
65998;SDS011;52766;56.008;37.440;2023-12-04T08:29:41;19.55;;;9.45;;
65998;SDS011;52766;56.008;37.440;2023-12-04T08:32:07;11.73;;;5.47;;
65998;SDS011;52766;56.008;37.440;2023-12-04T08:34:36;23.40;;;8.95;;
65998;SDS011;52766;56.008;37.440;2023-12-04T08:37:03;17.05;;;7.03;;
65998;SDS011;52766;56.008;37.440;2023-12-04T08:39:32;23.52;;;8.20;;
65998;SDS011;52766;56.008;37.440;2023-12-04T08:42:01;17.02;;;8.60;;
65998;SDS011;52766;56.008;37.440;2023-12-04T08:44:27;16.38;;;6.97;;
65998;SDS011;52766;56.008;37.440;2023-12-04T08:46:56;15.82;;;6.38;;
65998;SDS011;52766;56.008;37.440;2023-12-04T08:49:23;19.42;;;7.50;;
65998;SDS011;52766;56.008;37.440;2023-12-04T08:51:51;20.38;;;8.68;;
65998;SDS011;52766;56.008;37.440;2023-12-04T08:54:18;21.55;;;10.77;;
65998;SDS011;52766;56.008;37.440;2023-12-04T08:56:44;16.75;;;9.02;;
65998;SDS011;52766;56.008;37.440;2023-12-04T08:59:11;22.17;;;9.52;;
65998;SDS011;52766;56.008;37.440;2023-12-04T09:01:38;21.38;;;7.70;;
65998;SDS011;52766;56.008;37.440;2023-12-04T09:04:04;14.05;;;7.13;;
65998;SDS011;52766;56.008;37.440;2023-12-04T09:06:36;16.70;;;7.25;;
65998;SDS011;52766;56.008;37.440;2023-12-04T09:09:03;14.77;;;6.75;;
65998;SDS011;52766;56.008;37.440;2023-12-04T09:11:29;16.00;;;7.05;;
65998;SDS011;52766;56.008;37.440;2023-12-04T09:13:58;15.85;;;7.10;;
65998;SDS011;52766;56.008;37.440;2023-12-04T09:23:06;21.67;;;8.77;;
65998;SDS011;52766;56.008;37.440;2023-12-04T09:25:36;13.63;;;6.72;;
65998;SDS011;52766;56.008;37.440;2023-12-04T09:28:23;15.35;;;5.43;;
65998;SDS011;52766;56.008;37.440;2023-12-04T09:31:29;20.83;;;9.82;;
65998;SDS011;52766;56.008;37.440;2023-12-04T09:34:02;12.20;;;7.18;;
65998;SDS011;52766;56.008;37.440;2023-12-04T09:37:05;19.00;;;8.05;;
65998;SDS011;52766;56.008;37.440;2023-12-04T09:39:43;16.23;;;6.85;;
65998;SDS011;52766;56.008;37.440;2023-12-04T09:42:31;19.83;;;8.30;;
65998;SDS011;52766;56.008;37.440;2023-12-04T09:45:32;14.05;;;6.45;;
65998;SDS011;52766;56.008;37.440;2023-12-04T09:48:03;16.90;;;8.00;;
65998;SDS011;52766;56.008;37.440;2023-12-04T09:50:36;18.50;;;7.10;;
65998;SDS011;52766;56.008;37.440;2023-12-04T09:53:10;15.27;;;5.60;;
65998;SDS011;52766;56.008;37.440;2023-12-04T09:55:38;16.02;;;6.43;;
65998;SDS011;52766;56.008;37.440;2023-12-04T09:58:40;12.02;;;6.50;;
65998;SDS011;52766;56.008;37.440;2023-12-04T10:01:11;21.48;;;9.13;;
65998;SDS011;52766;56.008;37.440;2023-12-04T10:03:39;20.17;;;9.15;;
65998;SDS011;52766;56.008;37.440;2023-12-04T10:06:09;11.50;;;6.22;;
65998;SDS011;52766;56.008;37.440;2023-12-04T10:08:40;15.65;;;5.90;;
65998;SDS011;52766;56.008;37.440;2023-12-04T10:11:14;14.80;;;7.28;;
65998;SDS011;52766;56.008;37.440;2023-12-04T10:17:14;18.83;;;8.02;;
65998;SDS011;52766;56.008;37.440;2023-12-04T10:19:46;18.70;;;6.40;;
65998;SDS011;52766;56.008;37.440;2023-12-04T10:22:15;18.98;;;9.25;;
65998;SDS011;52766;56.008;37.440;2023-12-04T10:24:47;15.80;;;7.97;;
65998;SDS011;52766;56.008;37.440;2023-12-04T10:27:14;19.25;;;9.88;;
65998;SDS011;52766;56.008;37.440;2023-12-04T10:29:45;26.15;;;9.38;;
65998;SDS011;52766;56.008;37.440;2023-12-04T10:32:44;19.73;;;9.13;;
65998;SDS011;52766;56.008;37.440;2023-12-04T10:35:15;23.38;;;11.38;;
65998;SDS011;52766;56.008;37.440;2023-12-04T10:38:05;19.80;;;10.23;;
65998;SDS011;52766;56.008;37.440;2023-12-04T10:40:41;22.52;;;9.20;;
65998;SDS011;52766;56.008;37.440;2023-12-04T10:43:25;18.13;;;7.78;;
65998;SDS011;52766;56.008;37.440;2023-12-04T10:46:04;20.83;;;10.10;;
65998;SDS011;52766;56.008;37.440;2023-12-04T10:48:33;14.63;;;6.55;;
65998;SDS011;52766;56.008;37.440;2023-12-04T10:51:01;16.00;;;7.88;;
65998;SDS011;52766;56.008;37.440;2023-12-04T10:53:27;27.23;;;12.07;;
65998;SDS011;52766;56.008;37.440;2023-12-04T10:55:54;22.55;;;9.02;;
65998;SDS011;52766;56.008;37.440;2023-12-04T10:58:23;23.10;;;10.10;;
65998;SDS011;52766;56.008;37.440;2023-12-04T11:00:55;19.45;;;8.73;;
65998;SDS011;52766;56.008;37.440;2023-12-04T11:03:44;20.20;;;9.35;;
65998;SDS011;52766;56.008;37.440;2023-12-04T11:06:11;23.02;;;10.98;;
65998;SDS011;52766;56.008;37.440;2023-12-04T11:08:40;24.45;;;11.60;;
65998;SDS011;52766;56.008;37.440;2023-12-04T11:11:18;22.38;;;9.68;;
65998;SDS011;52766;56.008;37.440;2023-12-04T11:13:49;20.90;;;9.80;;
65998;SDS011;52766;56.008;37.440;2023-12-04T11:16:23;11.38;;;5.85;;
65998;SDS011;52766;56.008;37.440;2023-12-04T11:18:56;22.13;;;9.25;;
65998;SDS011;52766;56.008;37.440;2023-12-04T11:22:05;17.55;;;7.28;;
65998;SDS011;52766;56.008;37.440;2023-12-04T11:24:35;18.88;;;9.13;;
65998;SDS011;52766;56.008;37.440;2023-12-04T11:27:02;18.52;;;7.78;;
65998;SDS011;52766;56.008;37.440;2023-12-04T11:29:31;14.60;;;6.45;;
65998;SDS011;52766;56.008;37.440;2023-12-04T11:32:05;20.73;;;9.30;;
65998;SDS011;52766;56.008;37.440;2023-12-04T11:34:37;15.32;;;7.85;;
65998;SDS011;52766;56.008;37.440;2023-12-04T11:37:09;15.25;;;7.07;;
65998;SDS011;52766;56.008;37.440;2023-12-04T11:39:35;19.30;;;8.48;;
65998;SDS011;52766;56.008;37.440;2023-12-04T11:42:01;17.98;;;8.52;;
65998;SDS011;52766;56.008;37.440;2023-12-04T11:44:33;15.38;;;5.43;;
65998;SDS011;52766;56.008;37.440;2023-12-04T11:47:05;15.93;;;7.35;;
65998;SDS011;52766;56.008;37.440;2023-12-04T11:49:33;18.40;;;8.50;;
65998;SDS011;52766;56.008;37.440;2023-12-04T11:52:01;20.30;;;7.53;;
65998;SDS011;52766;56.008;37.440;2023-12-04T11:57:25;22.77;;;9.07;;
65998;SDS011;52766;56.008;37.440;2023-12-04T12:00:03;17.90;;;6.70;;
65998;SDS011;52766;56.008;37.440;2023-12-04T12:02:44;15.68;;;7.95;;
65998;SDS011;52766;56.008;37.440;2023-12-04T12:05:18;17.67;;;7.47;;
65998;SDS011;52766;56.008;37.440;2023-12-04T12:07:50;19.75;;;8.55;;
65998;SDS011;52766;56.008;37.440;2023-12-04T12:10:21;23.65;;;8.10;;
65998;SDS011;52766;56.008;37.440;2023-12-04T12:12:53;20.33;;;6.70;;
65998;SDS011;52766;56.008;37.440;2023-12-04T12:15:24;17.50;;;8.15;;
65998;SDS011;52766;56.008;37.440;2023-12-04T12:17:51;20.95;;;9.45;;
65998;SDS011;52766;56.008;37.440;2023-12-04T12:23:20;13.00;;;4.63;;
65998;SDS011;52766;56.008;37.440;2023-12-04T12:25:48;19.40;;;5.55;;
65998;SDS011;52766;56.008;37.440;2023-12-04T12:28:18;8.85;;;4.03;;
65998;SDS011;52766;56.008;37.440;2023-12-04T12:30:45;16.65;;;7.78;;
65998;SDS011;52766;56.008;37.440;2023-12-04T12:33:15;15.10;;;6.45;;
65998;SDS011;52766;56.008;37.440;2023-12-04T12:35:53;14.27;;;6.68;;
65998;SDS011;52766;56.008;37.440;2023-12-04T12:44:18;11.38;;;5.25;;
65998;SDS011;52766;56.008;37.440;2023-12-04T12:46:48;21.85;;;7.97;;
65998;SDS011;52766;56.008;37.440;2023-12-04T12:49:20;9.57;;;4.82;;
65998;SDS011;52766;56.008;37.440;2023-12-04T12:51:50;16.13;;;7.38;;
65998;SDS011;52766;56.008;37.440;2023-12-04T12:54:23;15.88;;;6.13;;
65998;SDS011;52766;56.008;37.440;2023-12-04T12:59:52;17.60;;;8.25;;
65998;SDS011;52766;56.008;37.440;2023-12-04T13:02:20;18.08;;;7.85;;
65998;SDS011;52766;56.008;37.440;2023-12-04T13:04:47;14.98;;;7.30;;
65998;SDS011;52766;56.008;37.440;2023-12-04T13:07:14;18.30;;;8.82;;
65998;SDS011;52766;56.008;37.440;2023-12-04T13:09:40;14.52;;;5.95;;
65998;SDS011;52766;56.008;37.440;2023-12-04T13:15:09;16.42;;;6.85;;
65998;SDS011;52766;56.008;37.440;2023-12-04T13:17:37;22.42;;;8.57;;
65998;SDS011;52766;56.008;37.440;2023-12-04T13:23:10;12.95;;;5.70;;
65998;SDS011;52766;56.008;37.440;2023-12-04T13:28:40;15.45;;;5.20;;
65998;SDS011;52766;56.008;37.440;2023-12-04T13:31:09;7.20;;;4.25;;
65998;SDS011;52766;56.008;37.440;2023-12-04T13:33:43;12.65;;;5.03;;
65998;SDS011;52766;56.008;37.440;2023-12-04T13:36:13;11.18;;;5.60;;
65998;SDS011;52766;56.008;37.440;2023-12-04T13:38:39;17.58;;;6.22;;
65998;SDS011;52766;56.008;37.440;2023-12-04T13:41:07;16.90;;;6.13;;
65998;SDS011;52766;56.008;37.440;2023-12-04T13:43:57;14.18;;;5.43;;
65998;SDS011;52766;56.008;37.440;2023-12-04T13:46:26;17.85;;;7.35;;
65998;SDS011;52766;56.008;37.440;2023-12-04T13:48:55;13.40;;;5.00;;
65998;SDS011;52766;56.008;37.440;2023-12-04T13:51:22;26.05;;;9.27;;
65998;SDS011;52766;56.008;37.440;2023-12-04T13:53:54;18.58;;;6.80;;
65998;SDS011;52766;56.008;37.440;2023-12-04T13:56:34;25.45;;;9.63;;
65998;SDS011;52766;56.008;37.440;2023-12-04T13:59:14;11.10;;;5.20;;
65998;SDS011;52766;56.008;37.440;2023-12-04T14:01:49;21.52;;;9.38;;
65998;SDS011;52766;56.008;37.440;2023-12-04T14:04:15;20.95;;;7.25;;
65998;SDS011;52766;56.008;37.440;2023-12-04T14:06:43;19.30;;;8.00;;
65998;SDS011;52766;56.008;37.440;2023-12-04T14:09:10;18.77;;;6.55;;
65998;SDS011;52766;56.008;37.440;2023-12-04T14:11:42;19.00;;;7.85;;
65998;SDS011;52766;56.008;37.440;2023-12-04T14:14:17;17.83;;;8.02;;
65998;SDS011;52766;56.008;37.440;2023-12-04T14:17:06;19.33;;;8.73;;
65998;SDS011;52766;56.008;37.440;2023-12-04T14:19:35;19.35;;;8.10;;
65998;SDS011;52766;56.008;37.440;2023-12-04T14:22:10;20.08;;;7.70;;
65998;SDS011;52766;56.008;37.440;2023-12-04T14:24:39;13.45;;;5.70;;
65998;SDS011;52766;56.008;37.440;2023-12-04T14:27:09;24.90;;;10.73;;
65998;SDS011;52766;56.008;37.440;2023-12-04T14:29:36;19.60;;;6.07;;
65998;SDS011;52766;56.008;37.440;2023-12-04T14:32:05;13.40;;;6.25;;
65998;SDS011;52766;56.008;37.440;2023-12-04T14:34:34;19.98;;;7.68;;
65998;SDS011;52766;56.008;37.440;2023-12-04T14:37:05;24.08;;;8.60;;
65998;SDS011;52766;56.008;37.440;2023-12-04T14:39:35;17.33;;;6.47;;
65998;SDS011;52766;56.008;37.440;2023-12-04T14:42:01;19.52;;;6.38;;
65998;SDS011;52766;56.008;37.440;2023-12-04T14:44:30;14.18;;;6.07;;
65998;SDS011;52766;56.008;37.440;2023-12-04T14:46:59;15.95;;;7.72;;
65998;SDS011;52766;56.008;37.440;2023-12-04T14:49:29;18.00;;;6.97;;
65998;SDS011;52766;56.008;37.440;2023-12-04T14:52:38;16.45;;;7.95;;
65998;SDS011;52766;56.008;37.440;2023-12-04T17:26:33;30.38;;;9.60;;
65998;SDS011;52766;56.008;37.440;2023-12-04T17:37:37;27.77;;;9.45;;
65998;SDS011;52766;56.008;37.440;2023-12-04T17:41:49;26.83;;;9.70;;
65998;SDS011;52766;56.008;37.440;2023-12-04T18:31:21;24.77;;;9.15;;
65998;SDS011;52766;56.008;37.440;2023-12-04T18:33:54;23.42;;;8.35;;
65998;SDS011;52766;56.008;37.440;2023-12-04T18:36:48;29.00;;;10.82;;
65998;SDS011;52766;56.008;37.440;2023-12-04T18:40:14;29.45;;;10.23;;
65998;SDS011;52766;56.008;37.440;2023-12-04T18:43:09;26.35;;;9.55;;
65998;SDS011;52766;56.008;37.440;2023-12-04T18:50:16;23.98;;;8.35;;
65998;SDS011;52766;56.008;37.440;2023-12-04T18:53:42;23.20;;;9.48;;
65998;SDS011;52766;56.008;37.440;2023-12-04T18:56:37;27.48;;;9.25;;
65998;SDS011;52766;56.008;37.440;2023-12-04T18:59:04;26.63;;;9.80;;
65998;SDS011;52766;56.008;37.440;2023-12-04T19:01:29;24.25;;;8.13;;